createdAt,value
2022-08-20T00:00:25.269Z,18.75
2022-08-20T00:02:55.432Z,19.63
2022-08-20T00:05:29.623Z,18.45
2022-08-20T00:07:58.887Z,19.92
2022-08-20T00:10:28.257Z,19.45
2022-08-20T00:12:57.432Z,19.92
2022-08-20T00:15:29.532Z,20.70
2022-08-20T00:17:58.424Z,18.27
2022-08-20T00:20:31.447Z,19.65
2022-08-20T00:23:00.243Z,19.15
2022-08-20T00:25:29.592Z,18.58
2022-08-20T00:27:58.667Z,21.20
2022-08-20T00:30:28.595Z,18.67
2022-08-20T00:32:59.735Z,18.92
2022-08-20T00:35:32.246Z,21.75
2022-08-20T00:38:00.999Z,19.48
2022-08-20T00:40:31.460Z,16.85
2022-08-20T00:43:02.212Z,16.38
2022-08-20T00:45:33.663Z,20.40
2022-08-20T00:48:01.945Z,19.63
2022-08-20T00:50:35.355Z,19.67
2022-08-20T00:53:07.569Z,17.23
2022-08-20T00:55:37.109Z,17.83
2022-08-20T00:58:09.697Z,19.02
2022-08-20T01:00:40.620Z,20.20
2022-08-20T01:03:11.398Z,17.65
2022-08-20T01:05:45.296Z,22.65
2022-08-20T01:08:14.236Z,19.38
2022-08-20T01:10:44.775Z,21.65
2022-08-20T01:13:18.314Z,19.08
2022-08-20T01:15:49.151Z,20.95
2022-08-20T01:18:20.250Z,20.63
2022-08-20T01:20:52.499Z,16.40
2022-08-20T01:23:30.329Z,17.15
2022-08-20T01:26:06.832Z,18.65
2022-08-20T01:28:40.264Z,20.45
2022-08-20T01:31:11.097Z,16.83
2022-08-20T01:33:39.561Z,20.45
2022-08-20T01:36:11.305Z,17.13
2022-08-20T01:38:41.797Z,17.48
2022-08-20T01:41:35.254Z,16.92
2022-08-20T01:44:04.101Z,15.98
2022-08-20T01:46:43.655Z,18.88
2022-08-20T01:49:21.050Z,16.38
2022-08-20T01:51:52.701Z,16.88
2022-08-20T01:54:21.384Z,17.67
2022-08-20T01:56:57.492Z,17.45
2022-08-20T01:59:25.780Z,17.23
2022-08-20T02:01:54.422Z,14.93
2022-08-20T02:04:22.773Z,19.02
2022-08-20T02:06:57.088Z,15.20
2022-08-20T02:09:27.411Z,13.07
2022-08-20T02:11:57.660Z,13.77
2022-08-20T02:14:26.600Z,15.90
2022-08-20T02:16:55.718Z,25.98
2022-08-20T02:19:27.177Z,18.17
2022-08-20T02:21:59.902Z,14.48
2022-08-20T02:24:28.112Z,14.00
2022-08-20T02:26:57.793Z,14.80
2022-08-20T02:29:26.263Z,10.77
2022-08-20T02:32:24.255Z,9.82
2022-08-20T02:34:43.564Z,11.35
2022-08-20T02:37:14.613Z,10.27
2022-08-20T02:39:42.883Z,9.65
2022-08-20T02:42:13.386Z,10.68
2022-08-20T02:44:41.572Z,10.65
2022-08-20T02:47:09.681Z,12.48
2022-08-20T02:49:37.847Z,11.82
2022-08-20T02:52:06.195Z,12.45
2022-08-20T02:54:34.268Z,14.00
2022-08-20T02:57:03.772Z,14.55
2022-08-20T02:59:33.643Z,11.60
2022-08-20T03:02:02.549Z,11.25
2022-08-20T03:04:31.130Z,13.63
2022-08-20T03:07:00.163Z,12.45
2022-08-20T03:09:28.363Z,13.55
2022-08-20T03:11:56.487Z,13.88
2022-08-20T03:14:25.113Z,12.63
2022-08-20T03:16:54.569Z,13.93
2022-08-20T03:19:23.101Z,13.13
2022-08-20T03:21:51.293Z,13.80
2022-08-20T03:24:19.471Z,11.85
2022-08-20T03:26:47.674Z,13.13
2022-08-20T03:29:15.778Z,14.20
2022-08-20T03:31:43.999Z,12.18
2022-08-20T03:34:13.647Z,13.93
2022-08-20T03:36:41.911Z,12.77
2022-08-20T03:39:13.472Z,16.55
2022-08-20T03:41:41.696Z,15.68
2022-08-20T03:44:10.209Z,17.58
2022-08-20T03:46:39.091Z,17.02
2022-08-20T03:49:07.483Z,17.10
2022-08-20T03:51:57.050Z,23.58
2022-08-20T03:54:29.131Z,18.55
2022-08-20T03:57:00.827Z,18.45
2022-08-20T03:59:29.005Z,21.05
2022-08-20T04:01:57.250Z,19.58
2022-08-20T04:04:25.343Z,21.15
2022-08-20T04:06:55.724Z,18.98
2022-08-20T04:09:23.825Z,21.75
2022-08-20T04:12:01.010Z,20.90
2022-08-20T04:14:29.442Z,21.00
2022-08-20T04:16:58.266Z,21.45
2022-08-20T04:19:28.342Z,19.40
2022-08-20T04:22:00.877Z,21.63
2022-08-20T04:24:32.483Z,18.10
2022-08-20T04:27:02.637Z,21.70
2022-08-20T04:29:32.484Z,20.50
2022-08-20T04:32:05.627Z,20.33
2022-08-20T04:34:34.838Z,23.10
2022-08-20T04:37:05.021Z,18.98
2022-08-20T04:39:33.264Z,22.25
2022-08-20T04:42:00.457Z,22.48
2022-08-20T04:44:28.877Z,19.38
2022-08-20T04:46:58.021Z,20.23
2022-08-20T04:49:26.403Z,20.15
2022-08-20T04:51:54.896Z,20.13
2022-08-20T04:54:24.403Z,18.77
2022-08-20T04:56:52.717Z,20.42
2022-08-20T04:59:21.016Z,19.80
2022-08-20T05:01:49.134Z,18.48
2022-08-20T05:04:17.317Z,20.30
2022-08-20T05:06:45.478Z,21.48
2022-08-20T05:09:13.631Z,18.90
2022-08-20T05:11:43.154Z,21.98
2022-08-20T05:14:11.447Z,21.65
2022-08-20T05:16:41.206Z,19.35
2022-08-20T05:19:11.497Z,21.13
2022-08-20T05:21:40.200Z,20.50
2022-08-20T05:24:10.238Z,19.30
2022-08-20T05:26:38.470Z,18.92
2022-08-20T05:29:08.030Z,18.50
2022-08-20T05:31:38.488Z,22.13
2022-08-20T05:34:10.366Z,17.80
2022-08-20T05:36:39.710Z,20.75
2022-08-20T05:39:08.891Z,22.58
2022-08-20T05:41:37.856Z,17.88
2022-08-20T05:44:10.661Z,20.17
2022-08-20T05:46:40.963Z,21.30
2022-08-20T05:49:09.502Z,20.60
2022-08-20T05:51:38.023Z,18.20
2022-08-20T05:54:07.440Z,19.58
2022-08-20T05:56:37.268Z,21.15
2022-08-20T05:59:08.716Z,23.02
2022-08-20T06:01:39.053Z,20.17
2022-08-20T06:04:26.673Z,18.38
2022-08-20T06:06:56.602Z,18.05
2022-08-20T06:09:31.302Z,21.23
2022-08-20T06:12:00.904Z,20.63
2022-08-20T06:14:31.002Z,18.73
2022-08-20T06:17:04.924Z,21.17
2022-08-20T06:19:34.085Z,19.58
2022-08-20T06:22:02.285Z,21.15
2022-08-20T06:24:37.219Z,18.95
2022-08-20T06:27:06.896Z,18.55
2022-08-20T06:29:37.744Z,19.45
2022-08-20T06:32:06.444Z,19.73
2022-08-20T06:34:34.588Z,20.45
2022-08-20T06:37:02.672Z,20.77
2022-08-20T06:39:31.369Z,18.85
2022-08-20T06:41:59.749Z,19.88
2022-08-20T06:44:28.529Z,20.83
2022-08-20T06:47:03.887Z,19.98
2022-08-20T06:49:35.204Z,18.60
2022-08-20T06:52:04.475Z,23.67
2022-08-20T06:54:34.369Z,20.70
2022-08-20T06:57:02.552Z,21.83
2022-08-20T06:59:31.202Z,20.77
2022-08-20T07:02:00.771Z,20.92
2022-08-20T07:04:29.032Z,19.58
2022-08-20T07:06:57.729Z,20.95
2022-08-20T07:09:27.158Z,21.50
2022-08-20T07:11:56.187Z,21.38
2022-08-20T07:14:24.276Z,24.65
2022-08-20T07:16:52.492Z,24.83
2022-08-20T07:19:22.360Z,23.52
2022-08-20T07:21:50.803Z,23.83
2022-08-20T07:24:19.352Z,21.83
2022-08-20T07:26:47.600Z,25.98
2022-08-20T07:29:15.759Z,22.70
2022-08-20T07:32:01.512Z,24.25
2022-08-20T07:34:32.737Z,25.30
2022-08-20T07:37:01.365Z,23.10
2022-08-20T07:39:30.049Z,22.23
2022-08-20T07:42:04.184Z,25.80
2022-08-20T07:44:32.401Z,24.58
2022-08-20T07:47:00.813Z,23.58
2022-08-20T07:49:28.882Z,28.85
2022-08-20T07:51:58.435Z,23.35
2022-08-20T07:54:30.355Z,27.55
2022-08-20T07:57:02.562Z,23.90
2022-08-20T07:59:31.530Z,25.95
2022-08-20T08:01:59.710Z,26.65
2022-08-20T08:04:27.887Z,24.45
2022-08-20T08:07:00.242Z,25.45
2022-08-20T08:09:29.606Z,23.83
2022-08-20T08:12:00.703Z,24.13
2022-08-20T08:14:31.542Z,27.30
2022-08-20T08:17:03.542Z,27.92
2022-08-20T08:19:38.882Z,25.38
2022-08-20T08:22:11.519Z,22.80
2022-08-20T08:24:40.119Z,26.27
2022-08-20T08:27:09.067Z,25.00
2022-08-20T08:29:40.610Z,24.92
2022-08-20T08:32:09.133Z,26.00
2022-08-20T08:34:38.283Z,28.15
2022-08-20T08:37:07.083Z,29.30
2022-08-20T08:39:36.688Z,28.45
2022-08-20T08:42:22.094Z,27.55
2022-08-20T08:44:50.875Z,26.80
2022-08-20T08:47:30.449Z,27.27
2022-08-20T08:49:59.392Z,25.75
2022-08-20T08:52:31.572Z,24.88
2022-08-20T08:55:03.716Z,28.73
2022-08-20T08:57:32.287Z,29.70
2022-08-20T09:00:05.167Z,23.55
2022-08-20T09:02:35.537Z,23.92
2022-08-20T09:05:14.723Z,36.25
2022-08-20T09:07:54.279Z,28.85
2022-08-20T09:10:24.952Z,29.05
2022-08-20T09:12:53.364Z,25.48
2022-08-20T09:15:22.707Z,24.33
2022-08-20T09:17:50.989Z,24.13
2022-08-20T09:20:19.544Z,24.73
2022-08-20T09:22:51.320Z,26.95
2022-08-20T09:25:21.558Z,23.48
2022-08-20T09:27:51.415Z,41.63
2022-08-20T09:30:20.433Z,41.13
2022-08-20T09:32:48.701Z,25.00
2022-08-20T09:35:16.889Z,25.08
2022-08-20T09:37:46.937Z,23.33
2022-08-20T09:40:21.361Z,33.45
2022-08-20T09:42:52.043Z,28.30
2022-08-20T09:45:21.099Z,24.50
2022-08-20T09:47:54.960Z,23.38
2022-08-20T09:50:25.165Z,24.85
2022-08-20T09:52:55.566Z,23.20
2022-08-20T09:55:29.885Z,22.42
2022-08-20T09:58:00.787Z,22.63
2022-08-20T10:00:29.105Z,24.33
2022-08-20T10:02:57.261Z,24.23
2022-08-20T10:05:25.360Z,24.10
2022-08-20T10:07:54.276Z,26.95
2022-08-20T10:10:22.455Z,27.65
2022-08-20T10:12:54.752Z,26.05
2022-08-20T10:15:24.455Z,29.75
2022-08-20T10:17:52.690Z,25.20
2022-08-20T10:20:20.970Z,26.33
2022-08-20T10:22:49.176Z,23.30
2022-08-20T10:25:17.977Z,23.60
2022-08-20T10:27:46.836Z,23.75
2022-08-20T10:30:15.130Z,23.88
2022-08-20T10:32:44.803Z,20.48
2022-08-20T10:35:12.923Z,21.83
2022-08-20T10:37:41.100Z,16.85
2022-08-20T10:40:11.151Z,17.38
2022-08-20T10:42:42.612Z,16.55
2022-08-20T10:45:11.635Z,14.50
2022-08-20T10:47:40.429Z,17.27
2022-08-20T10:50:13.709Z,16.00
2022-08-20T10:52:42.028Z,18.65
2022-08-20T10:55:10.821Z,13.52
2022-08-20T10:57:41.144Z,15.18
2022-08-20T11:00:10.901Z,12.48
2022-08-20T11:02:39.097Z,11.93
2022-08-20T11:05:10.876Z,14.48
2022-08-20T11:07:59.842Z,10.07
2022-08-20T11:10:30.258Z,11.18
2022-08-20T11:12:58.461Z,10.60
2022-08-20T11:15:26.923Z,10.93
2022-08-20T11:17:55.378Z,13.80
2022-08-20T11:20:26.480Z,12.00
2022-08-20T11:22:55.459Z,19.58
2022-08-20T11:25:23.723Z,13.27
2022-08-20T11:27:53.096Z,11.52
2022-08-20T11:30:25.380Z,9.63
2022-08-20T11:32:53.750Z,13.13
2022-08-20T11:35:42.266Z,11.55
2022-08-20T11:38:13.783Z,15.52
2022-08-20T11:40:41.966Z,8.10
2022-08-20T11:43:14.615Z,8.18
2022-08-20T11:45:43.801Z,8.50
2022-08-20T11:48:11.896Z,7.10
2022-08-20T11:50:40.111Z,8.07
2022-08-20T11:53:08.343Z,7.18
2022-08-20T11:55:38.665Z,7.75
2022-08-20T11:58:07.900Z,6.50
2022-08-20T12:00:37.067Z,6.88
2022-08-20T12:03:08.916Z,7.78
2022-08-20T12:05:38.042Z,6.40
2022-08-20T12:08:06.974Z,5.88
2022-08-20T12:10:35.400Z,6.95
2022-08-20T12:13:05.655Z,8.07
2022-08-20T12:15:33.924Z,4.70
2022-08-20T12:18:02.362Z,5.55
2022-08-20T12:20:30.681Z,5.90
2022-08-20T12:22:59.081Z,6.75
2022-08-20T12:25:27.764Z,6.57
2022-08-20T12:27:56.484Z,6.80
2022-08-20T12:30:26.657Z,9.98
2022-08-20T12:32:54.714Z,8.75
2022-08-20T12:35:23.037Z,11.68
2022-08-20T12:37:51.604Z,8.32
2022-08-20T12:40:31.808Z,7.03
2022-08-20T12:43:01.079Z,8.45
2022-08-20T12:45:31.009Z,9.57
2022-08-20T12:48:03.238Z,5.93
2022-08-20T12:50:32.128Z,7.25
2022-08-20T12:53:00.811Z,8.15
2022-08-20T12:55:29.476Z,7.80
2022-08-20T12:58:01.209Z,6.03
2022-08-20T13:00:33.045Z,8.95
2022-08-20T13:03:03.463Z,10.05
2022-08-20T13:05:32.541Z,11.00
2022-08-20T13:08:01.284Z,8.02
2022-08-20T13:10:32.303Z,7.35
2022-08-20T13:13:02.166Z,6.53
2022-08-20T13:15:32.700Z,6.03
2022-08-20T13:18:03.471Z,14.85
2022-08-20T13:20:34.679Z,8.48
2022-08-20T13:23:04.047Z,6.70
2022-08-20T13:25:33.085Z,8.20
2022-08-20T13:28:04.038Z,8.13
2022-08-20T13:30:37.370Z,15.68
2022-08-20T13:33:05.671Z,11.88
2022-08-20T13:35:34.011Z,7.90
2022-08-20T13:38:02.160Z,7.07
2022-08-20T13:40:30.347Z,11.07
2022-08-20T13:42:59.409Z,7.43
2022-08-20T13:45:29.325Z,9.98
2022-08-20T13:47:58.920Z,10.07
2022-08-20T13:50:28.063Z,8.32
2022-08-20T13:52:56.472Z,9.07
2022-08-20T13:55:28.139Z,9.38
2022-08-20T13:57:58.410Z,7.97
2022-08-20T14:00:31.398Z,8.45
2022-08-20T14:03:02.214Z,9.02
2022-08-20T14:05:31.022Z,9.50
2022-08-20T14:08:07.464Z,11.60
2022-08-20T14:10:36.059Z,11.43
2022-08-20T14:13:05.769Z,9.75
2022-08-20T14:15:34.045Z,8.68
2022-08-20T14:18:03.672Z,11.02
2022-08-20T14:20:33.619Z,13.48
2022-08-20T14:23:03.038Z,13.20
2022-08-20T14:25:32.802Z,11.60
2022-08-20T14:28:10.903Z,12.55
2022-08-20T14:30:39.246Z,10.07
2022-08-20T14:33:08.828Z,11.88
2022-08-20T14:35:37.105Z,19.35
2022-08-20T14:38:05.627Z,13.15
2022-08-20T14:40:34.550Z,14.98
2022-08-20T14:43:03.346Z,13.15
2022-08-20T14:45:31.530Z,11.50
2022-08-20T14:48:00.221Z,21.98
2022-08-20T14:50:32.479Z,11.73
2022-08-20T14:53:01.629Z,11.35
2022-08-20T14:55:32.251Z,13.85
2022-08-20T14:58:01.105Z,11.63
2022-08-20T15:00:34.000Z,13.98
2022-08-20T15:03:02.404Z,11.52
2022-08-20T15:05:32.370Z,10.77
2022-08-20T15:08:01.169Z,12.48
2022-08-20T15:10:31.532Z,11.27
2022-08-20T15:13:00.202Z,12.35
2022-08-20T15:15:28.373Z,11.13
2022-08-20T15:18:00.241Z,13.95
2022-08-20T15:20:32.431Z,12.25
2022-08-20T15:23:01.683Z,18.45
2022-08-20T15:25:36.733Z,14.23
2022-08-20T15:28:08.509Z,12.18
2022-08-20T15:30:38.167Z,10.70
2022-08-20T15:33:06.328Z,13.93
2022-08-20T15:35:36.029Z,16.15
2022-08-20T15:38:04.399Z,14.60
2022-08-20T15:40:34.204Z,14.35
2022-08-20T15:43:04.817Z,12.07
2022-08-20T15:45:33.972Z,12.77
2022-08-20T15:48:09.361Z,13.13
2022-08-20T15:51:01.696Z,13.45
2022-08-20T15:53:36.524Z,10.48
2022-08-20T15:56:11.310Z,13.85
2022-08-20T15:58:52.603Z,13.32
2022-08-20T16:01:31.159Z,14.43
2022-08-20T16:04:26.974Z,15.73
2022-08-20T16:07:02.549Z,16.25
2022-08-20T16:09:41.745Z,14.80
2022-08-20T16:12:12.202Z,18.98
2022-08-20T16:14:42.866Z,14.70
2022-08-20T16:17:14.728Z,15.95
2022-08-20T16:19:52.545Z,14.80
2022-08-20T16:22:22.495Z,13.48
2022-08-20T16:24:51.767Z,14.30
2022-08-20T16:27:29.023Z,13.48
2022-08-20T16:30:03.086Z,15.38
2022-08-20T16:32:39.946Z,15.23
2022-08-20T16:35:26.209Z,13.88
2022-08-20T16:38:11.042Z,16.70
2022-08-20T16:40:49.709Z,14.73
2022-08-20T16:43:22.893Z,13.50
2022-08-20T16:45:56.682Z,17.50
2022-08-20T16:48:35.004Z,15.52
2022-08-20T16:51:06.714Z,15.00
2022-08-20T16:53:36.737Z,15.88
2022-08-20T16:56:05.572Z,17.63
2022-08-20T16:58:33.749Z,13.93
2022-08-20T17:01:10.193Z,16.15
2022-08-20T17:03:40.196Z,14.93
2022-08-20T17:06:18.153Z,17.27
2022-08-20T17:08:51.274Z,16.45
2022-08-20T17:11:26.354Z,16.75
2022-08-20T17:14:09.505Z,14.90
2022-08-20T17:16:41.605Z,17.67
2022-08-20T17:19:14.680Z,16.88
2022-08-20T17:21:43.112Z,18.05
2022-08-20T17:24:20.287Z,17.48
2022-08-20T17:26:51.442Z,19.13
2022-08-20T17:29:24.731Z,16.40
2022-08-20T17:31:56.135Z,19.75
2022-08-20T17:34:26.656Z,17.30
2022-08-20T17:36:58.504Z,18.75
2022-08-20T17:39:29.749Z,19.63
2022-08-20T17:42:06.532Z,16.67
2022-08-20T17:44:38.256Z,27.55
2022-08-20T17:47:12.323Z,17.20
2022-08-20T17:49:44.276Z,16.63
2022-08-20T17:52:31.443Z,15.07
2022-08-20T17:55:03.844Z,19.15
2022-08-20T17:57:38.364Z,16.92
2022-08-20T18:00:14.208Z,15.68
2022-08-20T18:02:42.829Z,16.80
2022-08-20T18:05:18.975Z,15.60
2022-08-20T18:07:59.756Z,15.45
2022-08-20T18:10:30.879Z,13.30
2022-08-20T18:13:05.611Z,15.88
2022-08-20T18:15:39.804Z,11.45
2022-08-20T18:18:17.994Z,11.32
2022-08-20T18:21:15.237Z,11.85
2022-08-20T18:23:48.736Z,8.20
2022-08-20T18:26:24.126Z,9.18
2022-08-20T18:28:57.740Z,9.80
2022-08-20T18:31:30.155Z,8.38
2022-08-20T18:33:58.762Z,5.68
2022-08-20T18:36:30.364Z,5.70
2022-08-20T18:39:05.487Z,6.38
2022-08-20T18:41:38.371Z,6.05
2022-08-20T18:44:10.153Z,6.88
2022-08-20T18:46:51.081Z,7.05
2022-08-20T18:49:28.669Z,7.00
2022-08-20T18:51:57.736Z,7.40
2022-08-20T18:54:29.636Z,7.57
2022-08-20T18:57:07.870Z,6.63
2022-08-20T18:59:43.960Z,5.07
2022-08-20T19:02:20.104Z,5.45
2022-08-20T19:04:56.634Z,5.72
2022-08-20T19:07:45.822Z,6.72
2022-08-20T19:10:40.869Z,6.43
2022-08-20T19:13:25.230Z,10.15
2022-08-20T19:16:00.361Z,5.75
2022-08-20T19:18:34.660Z,6.22
2022-08-20T19:21:05.709Z,5.72
2022-08-20T19:23:50.020Z,5.45
2022-08-20T19:26:25.908Z,7.03
2022-08-20T19:28:59.007Z,8.02
2022-08-20T19:31:29.302Z,6.53
2022-08-20T19:34:04.105Z,6.20
2022-08-20T19:36:53.811Z,8.75
2022-08-20T19:39:25.627Z,6.72
2022-08-20T19:41:58.460Z,6.40
2022-08-20T19:44:34.161Z,6.10
2022-08-20T19:47:03.132Z,6.32
2022-08-20T19:49:42.903Z,6.13
2022-08-20T19:52:25.883Z,5.47
2022-08-20T19:55:01.302Z,6.13
2022-08-20T19:57:31.786Z,6.65
2022-08-20T20:00:05.024Z,6.50
2022-08-20T20:02:34.595Z,16.80
2022-08-20T20:05:06.810Z,7.88
2022-08-20T20:07:39.949Z,7.28
2022-08-20T20:10:11.920Z,7.32
2022-08-20T20:12:40.675Z,8.13
2022-08-20T20:15:10.907Z,6.15
2022-08-20T20:17:39.653Z,9.05
2022-08-20T20:20:22.372Z,7.70
2022-08-20T20:22:53.840Z,9.07
2022-08-20T20:25:25.237Z,9.88
2022-08-20T20:27:55.725Z,7.97
2022-08-20T20:30:29.713Z,10.18
2022-08-20T20:32:59.599Z,8.48
2022-08-20T20:35:32.169Z,9.25
2022-08-20T20:38:04.173Z,9.93
2022-08-20T20:40:36.069Z,9.27
2022-08-20T20:43:07.490Z,8.45
2022-08-20T20:45:40.627Z,9.95
2022-08-20T20:48:20.670Z,10.23
2022-08-20T20:50:51.094Z,7.97
2022-08-20T20:53:50.890Z,12.27
2022-08-20T20:56:33.512Z,8.25
2022-08-20T20:59:06.607Z,8.27
2022-08-20T21:01:48.489Z,8.23
2022-08-20T21:04:19.477Z,9.38
2022-08-20T21:06:47.733Z,8.93
2022-08-20T21:09:16.292Z,9.55
2022-08-20T21:11:44.432Z,8.40
2022-08-20T21:14:12.645Z,9.20
2022-08-20T21:16:42.394Z,12.85
2022-08-20T21:19:11.883Z,10.20
2022-08-20T21:21:41.456Z,8.45
2022-08-20T21:24:09.961Z,7.90
2022-08-20T21:26:38.707Z,8.50
2022-08-20T21:29:08.339Z,9.75
2022-08-20T21:31:40.156Z,10.43
2022-08-20T21:34:14.373Z,9.30
2022-08-20T21:36:43.216Z,9.88
2022-08-20T21:39:11.685Z,10.18
2022-08-20T21:41:55.164Z,10.18
2022-08-20T21:44:25.996Z,10.65
2022-08-20T21:46:56.201Z,10.52
2022-08-20T21:49:27.503Z,8.10
2022-08-20T21:51:56.370Z,10.30
2022-08-20T21:54:26.288Z,7.28
2022-08-20T21:56:58.081Z,9.80
2022-08-20T21:59:26.894Z,11.57
2022-08-20T22:01:55.426Z,9.07
2022-08-20T22:04:25.007Z,9.70
2022-08-20T22:06:53.171Z,12.52
2022-08-20T22:09:21.378Z,14.32
2022-08-20T22:11:54.012Z,10.30
2022-08-20T22:14:23.590Z,10.40
2022-08-20T22:16:51.786Z,12.20
2022-08-20T22:19:20.124Z,11.45
2022-08-20T22:21:50.343Z,9.70
2022-08-20T22:24:18.484Z,12.75
2022-08-20T22:26:46.623Z,10.48
2022-08-20T22:29:14.840Z,11.05
2022-08-20T22:31:44.472Z,8.38
2022-08-20T22:34:14.062Z,7.75
2022-08-20T22:36:42.497Z,9.65
2022-08-20T22:39:12.082Z,8.60
2022-08-20T22:41:41.201Z,8.68
2022-08-20T22:44:09.469Z,8.23
2022-08-20T22:46:43.645Z,6.78
2022-08-20T22:49:19.484Z,6.22
2022-08-20T22:51:47.593Z,7.53
2022-08-20T22:54:20.709Z,10.30
2022-08-20T22:56:48.994Z,6.90
2022-08-20T22:59:19.426Z,8.77
2022-08-20T23:01:47.831Z,9.95
2022-08-20T23:04:25.238Z,7.20
2022-08-20T23:06:53.520Z,7.10
2022-08-20T23:09:23.148Z,7.75
2022-08-20T23:11:53.142Z,17.15
2022-08-20T23:14:21.902Z,9.57
2022-08-20T23:17:04.584Z,6.65
2022-08-20T23:19:32.782Z,9.60
2022-08-20T23:22:00.913Z,9.52
2022-08-20T23:24:30.522Z,8.60
2022-08-20T23:26:58.781Z,8.82
2022-08-20T23:29:27.575Z,7.30
2022-08-20T23:31:56.856Z,6.00
2022-08-20T23:34:25.738Z,8.57
2022-08-20T23:36:55.258Z,8.73
2022-08-20T23:39:23.836Z,7.53
2022-08-20T23:41:53.333Z,8.52
2022-08-20T23:44:25.288Z,7.03
2022-08-20T23:46:55.715Z,8.88
2022-08-20T23:49:23.814Z,7.40
2022-08-20T23:51:51.915Z,6.30
2022-08-20T23:54:20.077Z,6.93
2022-08-20T23:56:48.359Z,5.72
2022-08-20T23:59:17.954Z,6.85
